sensor_id;sensor_type;location;lat;lon;timestamp;temperature;humidity
7163;DHT22;3623;47.098;15.446;2023-07-02T00:02:15;17.00;99.90
7163;DHT22;3623;47.098;15.446;2023-07-02T00:04:42;17.00;99.90
7163;DHT22;3623;47.098;15.446;2023-07-02T00:07:09;17.10;99.90
7163;DHT22;3623;47.098;15.446;2023-07-02T00:09:36;17.00;99.90
7163;DHT22;3623;47.098;15.446;2023-07-02T00:12:06;17.10;99.90
7163;DHT22;3623;47.098;15.446;2023-07-02T00:14:33;17.00;99.90
7163;DHT22;3623;47.098;15.446;2023-07-02T00:17:00;17.00;99.90
7163;DHT22;3623;47.098;15.446;2023-07-02T00:19:27;17.00;99.90
7163;DHT22;3623;47.098;15.446;2023-07-02T00:21:54;16.90;99.90
7163;DHT22;3623;47.098;15.446;2023-07-02T00:24:21;17.00;99.90
7163;DHT22;3623;47.098;15.446;2023-07-02T00:26:48;16.90;99.90
7163;DHT22;3623;47.098;15.446;2023-07-02T00:29:17;17.00;99.90
7163;DHT22;3623;47.098;15.446;2023-07-02T00:31:44;17.00;99.90
7163;DHT22;3623;47.098;15.446;2023-07-02T00:34:11;16.90;99.90
7163;DHT22;3623;47.098;15.446;2023-07-02T00:36:38;17.00;99.90
7163;DHT22;3623;47.098;15.446;2023-07-02T00:39:07;17.00;99.90
7163;DHT22;3623;47.098;15.446;2023-07-02T00:41:34;16.90;99.90
7163;DHT22;3623;47.098;15.446;2023-07-02T00:44:01;16.80;99.90
7163;DHT22;3623;47.098;15.446;2023-07-02T00:46:30;16.80;99.90
7163;DHT22;3623;47.098;15.446;2023-07-02T00:48:59;16.80;99.90
7163;DHT22;3623;47.098;15.446;2023-07-02T00:51:27;16.70;99.90
7163;DHT22;3623;47.098;15.446;2023-07-02T00:53:56;16.70;99.90
7163;DHT22;3623;47.098;15.446;2023-07-02T00:56:24;16.80;99.90
7163;DHT22;3623;47.098;15.446;2023-07-02T00:58:54;16.70;99.90
7163;DHT22;3623;47.098;15.446;2023-07-02T01:01:26;16.60;99.90
7163;DHT22;3623;47.098;15.446;2023-07-02T01:03:59;16.70;99.90
7163;DHT22;3623;47.098;15.446;2023-07-02T01:06:28;16.70;99.90
7163;DHT22;3623;47.098;15.446;2023-07-02T01:08:56;16.70;99.90
7163;DHT22;3623;47.098;15.446;2023-07-02T01:11:27;16.70;99.90
7163;DHT22;3623;47.098;15.446;2023-07-02T01:13:56;16.70;99.90
7163;DHT22;3623;47.098;15.446;2023-07-02T01:16:26;16.70;99.90
7163;DHT22;3623;47.098;15.446;2023-07-02T01:18:58;16.60;99.90
7163;DHT22;3623;47.098;15.446;2023-07-02T01:21:30;16.50;99.90
7163;DHT22;3623;47.098;15.446;2023-07-02T01:23:57;16.60;99.90
7163;DHT22;3623;47.098;15.446;2023-07-02T01:26:29;16.50;99.90
7163;DHT22;3623;47.098;15.446;2023-07-02T01:28:56;16.40;99.90
7163;DHT22;3623;47.098;15.446;2023-07-02T01:31:23;16.30;99.90
7163;DHT22;3623;47.098;15.446;2023-07-02T01:33:51;16.40;99.90
7163;DHT22;3623;47.098;15.446;2023-07-02T01:36:18;16.40;99.90
7163;DHT22;3623;47.098;15.446;2023-07-02T01:38:47;16.30;99.90
7163;DHT22;3623;47.098;15.446;2023-07-02T01:41:14;16.30;99.90
7163;DHT22;3623;47.098;15.446;2023-07-02T01:43:41;16.20;99.90
7163;DHT22;3623;47.098;15.446;2023-07-02T01:46:08;16.10;99.90
7163;DHT22;3623;47.098;15.446;2023-07-02T01:48:35;16.10;99.90
7163;DHT22;3623;47.098;15.446;2023-07-02T01:51:02;16.00;99.90
7163;DHT22;3623;47.098;15.446;2023-07-02T01:53:29;16.00;99.90
7163;DHT22;3623;47.098;15.446;2023-07-02T01:55:58;15.90;99.90
7163;DHT22;3623;47.098;15.446;2023-07-02T01:58:25;15.90;99.90
7163;DHT22;3623;47.098;15.446;2023-07-02T02:00:52;15.80;99.90
7163;DHT22;3623;47.098;15.446;2023-07-02T02:03:19;15.70;99.90
7163;DHT22;3623;47.098;15.446;2023-07-02T02:05:47;15.80;99.90
7163;DHT22;3623;47.098;15.446;2023-07-02T02:08:14;15.90;99.90
7163;DHT22;3623;47.098;15.446;2023-07-02T02:10:41;15.50;99.90
7163;DHT22;3623;47.098;15.446;2023-07-02T02:13:09;15.40;99.90
7163;DHT22;3623;47.098;15.446;2023-07-02T02:15:36;15.40;99.90
7163;DHT22;3623;47.098;15.446;2023-07-02T02:18:03;15.40;99.90
7163;DHT22;3623;47.098;15.446;2023-07-02T02:20:30;15.40;99.90
7163;DHT22;3623;47.098;15.446;2023-07-02T02:22:57;15.50;99.90
7163;DHT22;3623;47.098;15.446;2023-07-02T02:25:25;15.30;99.90
7163;DHT22;3623;47.098;15.446;2023-07-02T02:27:52;15.30;99.90
7163;DHT22;3623;47.098;15.446;2023-07-02T02:30:20;16.00;99.90
7163;DHT22;3623;47.098;15.446;2023-07-02T02:32:47;15.20;99.90
7163;DHT22;3623;47.098;15.446;2023-07-02T02:35:15;15.00;99.90
7163;DHT22;3623;47.098;15.446;2023-07-02T02:37:42;14.80;99.90
7163;DHT22;3623;47.098;15.446;2023-07-02T02:40:10;14.90;99.90
7163;DHT22;3623;47.098;15.446;2023-07-02T02:42:38;14.90;99.90
7163;DHT22;3623;47.098;15.446;2023-07-02T02:45:06;14.90;99.90
7163;DHT22;3623;47.098;15.446;2023-07-02T02:47:35;14.80;99.90
7163;DHT22;3623;47.098;15.446;2023-07-02T02:50:02;14.70;99.90
7163;DHT22;3623;47.098;15.446;2023-07-02T02:52:29;14.60;99.90
7163;DHT22;3623;47.098;15.446;2023-07-02T02:54:56;14.60;99.90
7163;DHT22;3623;47.098;15.446;2023-07-02T02:57:23;14.60;99.90
7163;DHT22;3623;47.098;15.446;2023-07-02T02:59:50;14.60;99.90
7163;DHT22;3623;47.098;15.446;2023-07-02T03:02:17;14.70;99.90
7163;DHT22;3623;47.098;15.446;2023-07-02T03:04:45;14.50;99.90
7163;DHT22;3623;47.098;15.446;2023-07-02T03:07:14;14.60;99.90
7163;DHT22;3623;47.098;15.446;2023-07-02T03:09:42;14.40;99.90
7163;DHT22;3623;47.098;15.446;2023-07-02T03:12:09;14.60;99.90
7163;DHT22;3623;47.098;15.446;2023-07-02T03:14:36;14.80;99.90
7163;DHT22;3623;47.098;15.446;2023-07-02T03:17:03;14.70;99.90
7163;DHT22;3623;47.098;15.446;2023-07-02T03:19:31;14.70;99.90
7163;DHT22;3623;47.098;15.446;2023-07-02T03:21:59;14.70;99.90
7163;DHT22;3623;47.098;15.446;2023-07-02T03:24:26;14.70;99.90
7163;DHT22;3623;47.098;15.446;2023-07-02T03:26:53;14.60;99.90
7163;DHT22;3623;47.098;15.446;2023-07-02T03:29:20;14.70;99.90
7163;DHT22;3623;47.098;15.446;2023-07-02T03:31:47;14.80;99.90
7163;DHT22;3623;47.098;15.446;2023-07-02T03:34:14;14.70;99.90
7163;DHT22;3623;47.098;15.446;2023-07-02T03:36:41;14.80;99.90
7163;DHT22;3623;47.098;15.446;2023-07-02T03:39:11;15.00;99.90
7163;DHT22;3623;47.098;15.446;2023-07-02T03:41:38;14.90;99.90
7163;DHT22;3623;47.098;15.446;2023-07-02T03:44:05;15.00;99.90
7163;DHT22;3623;47.098;15.446;2023-07-02T03:46:32;15.00;99.90
7163;DHT22;3623;47.098;15.446;2023-07-02T03:48:59;15.10;99.90
7163;DHT22;3623;47.098;15.446;2023-07-02T03:51:26;15.20;99.90
7163;DHT22;3623;47.098;15.446;2023-07-02T03:53:53;15.30;99.90
7163;DHT22;3623;47.098;15.446;2023-07-02T03:56:22;15.30;99.90
7163;DHT22;3623;47.098;15.446;2023-07-02T03:58:49;15.50;99.90
7163;DHT22;3623;47.098;15.446;2023-07-02T04:01:16;15.60;99.90
7163;DHT22;3623;47.098;15.446;2023-07-02T04:03:48;15.70;99.90
7163;DHT22;3623;47.098;15.446;2023-07-02T04:06:15;15.60;99.90
7163;DHT22;3623;47.098;15.446;2023-07-02T04:08:43;15.70;99.90
7163;DHT22;3623;47.098;15.446;2023-07-02T04:11:10;15.80;99.90
7163;DHT22;3623;47.098;15.446;2023-07-02T04:13:39;15.70;99.90
7163;DHT22;3623;47.098;15.446;2023-07-02T04:16:07;15.70;99.90
7163;DHT22;3623;47.098;15.446;2023-07-02T04:18:34;15.70;99.90
7163;DHT22;3623;47.098;15.446;2023-07-02T04:21:02;15.70;99.90
7163;DHT22;3623;47.098;15.446;2023-07-02T04:23:29;15.80;99.90
7163;DHT22;3623;47.098;15.446;2023-07-02T04:25:56;15.70;99.90
7163;DHT22;3623;47.098;15.446;2023-07-02T04:28:23;15.60;99.90
7163;DHT22;3623;47.098;15.446;2023-07-02T04:30:52;15.70;99.90
7163;DHT22;3623;47.098;15.446;2023-07-02T04:33:19;15.60;99.90
7163;DHT22;3623;47.098;15.446;2023-07-02T04:35:46;15.60;99.90
7163;DHT22;3623;47.098;15.446;2023-07-02T04:38:13;15.60;99.90
7163;DHT22;3623;47.098;15.446;2023-07-02T04:40:40;15.50;99.90
7163;DHT22;3623;47.098;15.446;2023-07-02T04:43:10;15.60;99.90
7163;DHT22;3623;47.098;15.446;2023-07-02T04:45:38;15.60;99.90
7163;DHT22;3623;47.098;15.446;2023-07-02T04:48:07;15.70;99.90
7163;DHT22;3623;47.098;15.446;2023-07-02T04:50:34;15.80;99.90
7163;DHT22;3623;47.098;15.446;2023-07-02T04:53:01;15.60;99.90
7163;DHT22;3623;47.098;15.446;2023-07-02T04:55:28;15.70;99.90
7163;DHT22;3623;47.098;15.446;2023-07-02T04:57:55;16.10;99.90
7163;DHT22;3623;47.098;15.446;2023-07-02T05:00:22;15.80;99.90
7163;DHT22;3623;47.098;15.446;2023-07-02T05:02:50;15.90;99.90
7163;DHT22;3623;47.098;15.446;2023-07-02T05:05:18;16.00;99.90
7163;DHT22;3623;47.098;15.446;2023-07-02T05:07:45;16.00;99.90
7163;DHT22;3623;47.098;15.446;2023-07-02T05:10:12;16.20;99.90
7163;DHT22;3623;47.098;15.446;2023-07-02T05:12:39;16.20;99.90
7163;DHT22;3623;47.098;15.446;2023-07-02T05:15:07;16.30;99.90
7163;DHT22;3623;47.098;15.446;2023-07-02T05:17:35;16.40;99.90
7163;DHT22;3623;47.098;15.446;2023-07-02T05:20:02;16.40;99.90
7163;DHT22;3623;47.098;15.446;2023-07-02T05:22:31;16.60;99.90
7163;DHT22;3623;47.098;15.446;2023-07-02T05:24:58;16.60;99.90
7163;DHT22;3623;47.098;15.446;2023-07-02T05:27:25;16.60;99.90
7163;DHT22;3623;47.098;15.446;2023-07-02T05:29:52;16.80;99.90
7163;DHT22;3623;47.098;15.446;2023-07-02T05:32:19;16.80;99.90
7163;DHT22;3623;47.098;15.446;2023-07-02T05:34:46;16.90;99.90
7163;DHT22;3623;47.098;15.446;2023-07-02T05:37:13;16.90;99.90
7163;DHT22;3623;47.098;15.446;2023-07-02T05:39:42;16.90;99.90
7163;DHT22;3623;47.098;15.446;2023-07-02T05:42:09;16.90;99.90
7163;DHT22;3623;47.098;15.446;2023-07-02T05:44:36;17.00;99.90
7163;DHT22;3623;47.098;15.446;2023-07-02T05:47:03;17.00;99.90
7163;DHT22;3623;47.098;15.446;2023-07-02T05:49:30;17.10;99.90
7163;DHT22;3623;47.098;15.446;2023-07-02T05:51:57;17.20;99.90
7163;DHT22;3623;47.098;15.446;2023-07-02T05:54:24;17.30;99.90
7163;DHT22;3623;47.098;15.446;2023-07-02T05:56:53;17.30;99.90
7163;DHT22;3623;47.098;15.446;2023-07-02T05:59:20;17.50;99.90
7163;DHT22;3623;47.098;15.446;2023-07-02T06:01:47;17.50;99.90
7163;DHT22;3623;47.098;15.446;2023-07-02T06:04:14;17.50;99.90
7163;DHT22;3623;47.098;15.446;2023-07-02T06:06:41;17.40;99.90
7163;DHT22;3623;47.098;15.446;2023-07-02T06:09:08;17.60;99.90
7163;DHT22;3623;47.098;15.446;2023-07-02T06:11:35;17.50;99.90
7163;DHT22;3623;47.098;15.446;2023-07-02T06:14:05;17.80;99.90
7163;DHT22;3623;47.098;15.446;2023-07-02T06:16:32;17.60;99.90
7163;DHT22;3623;47.098;15.446;2023-07-02T06:18:59;17.80;99.90
7163;DHT22;3623;47.098;15.446;2023-07-02T06:21:26;17.70;99.90
7163;DHT22;3623;47.098;15.446;2023-07-02T06:23:56;17.70;99.90
7163;DHT22;3623;47.098;15.446;2023-07-02T06:26:23;17.60;99.90
7163;DHT22;3623;47.098;15.446;2023-07-02T06:28:50;18.00;99.90
7163;DHT22;3623;47.098;15.446;2023-07-02T06:31:19;17.60;99.90
7163;DHT22;3623;47.098;15.446;2023-07-02T06:33:46;17.60;99.90
7163;DHT22;3623;47.098;15.446;2023-07-02T06:36:13;17.60;99.90
7163;DHT22;3623;47.098;15.446;2023-07-02T06:38:40;17.70;99.90
7163;DHT22;3623;47.098;15.446;2023-07-02T06:41:07;17.60;99.90
7163;DHT22;3623;47.098;15.446;2023-07-02T06:43:35;17.80;99.90
7163;DHT22;3623;47.098;15.446;2023-07-02T06:46:02;17.80;99.90
7163;DHT22;3623;47.098;15.446;2023-07-02T06:48:30;17.90;99.90
7163;DHT22;3623;47.098;15.446;2023-07-02T06:50:58;18.00;99.90
7163;DHT22;3623;47.098;15.446;2023-07-02T06:53:25;18.00;99.90
7163;DHT22;3623;47.098;15.446;2023-07-02T06:55:52;18.10;99.90
7163;DHT22;3623;47.098;15.446;2023-07-02T06:58:19;18.50;99.90
7163;DHT22;3623;47.098;15.446;2023-07-02T07:00:46;18.50;99.90
7163;DHT22;3623;47.098;15.446;2023-07-02T07:03:13;18.70;99.90
7163;DHT22;3623;47.098;15.446;2023-07-02T07:05:42;18.90;99.90
7163;DHT22;3623;47.098;15.446;2023-07-02T07:08:09;19.00;99.90
7163;DHT22;3623;47.098;15.446;2023-07-02T07:10:36;19.20;99.90
7163;DHT22;3623;47.098;15.446;2023-07-02T07:13:03;19.20;99.90
7163;DHT22;3623;47.098;15.446;2023-07-02T07:15:32;19.50;99.90
7163;DHT22;3623;47.098;15.446;2023-07-02T07:18:00;19.90;99.90
7163;DHT22;3623;47.098;15.446;2023-07-02T07:20:27;20.40;99.90
7163;DHT22;3623;47.098;15.446;2023-07-02T07:22:56;20.80;99.90
7163;DHT22;3623;47.098;15.446;2023-07-02T07:25:23;21.20;99.90
7163;DHT22;3623;47.098;15.446;2023-07-02T07:27:51;21.60;99.90
7163;DHT22;3623;47.098;15.446;2023-07-02T07:30:18;22.00;99.90
7163;DHT22;3623;47.098;15.446;2023-07-02T07:32:49;22.40;99.90
7163;DHT22;3623;47.098;15.446;2023-07-02T07:35:16;22.60;99.90
7163;DHT22;3623;47.098;15.446;2023-07-02T07:37:44;22.30;99.90
7163;DHT22;3623;47.098;15.446;2023-07-02T07:40:13;22.40;99.90
7163;DHT22;3623;47.098;15.446;2023-07-02T07:42:40;22.20;99.90
7163;DHT22;3623;47.098;15.446;2023-07-02T07:45:09;22.10;99.90
7163;DHT22;3623;47.098;15.446;2023-07-02T07:47:36;22.30;99.90
7163;DHT22;3623;47.098;15.446;2023-07-02T07:50:04;22.30;99.90
7163;DHT22;3623;47.098;15.446;2023-07-02T07:52:36;22.30;99.90
7163;DHT22;3623;47.098;15.446;2023-07-02T07:55:04;22.30;99.90
7163;DHT22;3623;47.098;15.446;2023-07-02T07:57:33;22.20;99.90
7163;DHT22;3623;47.098;15.446;2023-07-02T08:00:00;22.10;99.90
7163;DHT22;3623;47.098;15.446;2023-07-02T08:02:29;21.90;99.90
7163;DHT22;3623;47.098;15.446;2023-07-02T08:04:56;21.80;99.90
7163;DHT22;3623;47.098;15.446;2023-07-02T08:07:24;21.70;99.90
7163;DHT22;3623;47.098;15.446;2023-07-02T08:09:51;21.70;99.90
7163;DHT22;3623;47.098;15.446;2023-07-02T08:12:18;21.80;99.90
7163;DHT22;3623;47.098;15.446;2023-07-02T08:14:46;21.80;99.90
7163;DHT22;3623;47.098;15.446;2023-07-02T08:17:13;22.10;99.90
7163;DHT22;3623;47.098;15.446;2023-07-02T08:19:40;22.30;99.90
7163;DHT22;3623;47.098;15.446;2023-07-02T08:22:07;22.40;99.90
7163;DHT22;3623;47.098;15.446;2023-07-02T08:24:34;22.30;99.90
7163;DHT22;3623;47.098;15.446;2023-07-02T08:27:02;22.40;99.90
7163;DHT22;3623;47.098;15.446;2023-07-02T08:29:29;22.50;99.90
7163;DHT22;3623;47.098;15.446;2023-07-02T08:31:58;22.40;99.90
7163;DHT22;3623;47.098;15.446;2023-07-02T08:34:25;22.50;99.90
7163;DHT22;3623;47.098;15.446;2023-07-02T08:36:52;22.40;99.90
7163;DHT22;3623;47.098;15.446;2023-07-02T08:39:19;22.40;99.90
7163;DHT22;3623;47.098;15.446;2023-07-02T08:41:47;22.50;99.90
7163;DHT22;3623;47.098;15.446;2023-07-02T08:44:16;22.70;99.90
7163;DHT22;3623;47.098;15.446;2023-07-02T08:46:45;22.70;99.90
7163;DHT22;3623;47.098;15.446;2023-07-02T08:49:14;22.50;99.90
7163;DHT22;3623;47.098;15.446;2023-07-02T08:51:45;22.60;99.90
7163;DHT22;3623;47.098;15.446;2023-07-02T08:54:12;22.80;99.90
7163;DHT22;3623;47.098;15.446;2023-07-02T08:56:39;22.80;99.90
7163;DHT22;3623;47.098;15.446;2023-07-02T08:59:07;22.70;99.90
7163;DHT22;3623;47.098;15.446;2023-07-02T09:01:44;22.50;99.90
7163;DHT22;3623;47.098;15.446;2023-07-02T09:04:17;22.90;99.90
7163;DHT22;3623;47.098;15.446;2023-07-02T09:06:45;23.10;99.90
7163;DHT22;3623;47.098;15.446;2023-07-02T09:09:12;23.30;99.90
7163;DHT22;3623;47.098;15.446;2023-07-02T09:11:49;23.70;99.90
7163;DHT22;3623;47.098;15.446;2023-07-02T09:14:26;24.30;99.90
7163;DHT22;3623;47.098;15.446;2023-07-02T09:17:04;24.30;99.90
7163;DHT22;3623;47.098;15.446;2023-07-02T09:19:33;24.40;99.90
7163;DHT22;3623;47.098;15.446;2023-07-02T09:22:01;24.70;99.90
7163;DHT22;3623;47.098;15.446;2023-07-02T09:24:30;24.70;99.90
7163;DHT22;3623;47.098;15.446;2023-07-02T09:26:59;24.90;99.90
7163;DHT22;3623;47.098;15.446;2023-07-02T09:29:28;25.00;99.90
7163;DHT22;3623;47.098;15.446;2023-07-02T09:31:56;25.00;99.90
7163;DHT22;3623;47.098;15.446;2023-07-02T09:34:29;25.00;99.90
7163;DHT22;3623;47.098;15.446;2023-07-02T09:36:59;24.90;99.90
7163;DHT22;3623;47.098;15.446;2023-07-02T09:39:27;25.00;99.90
7163;DHT22;3623;47.098;15.446;2023-07-02T09:41:55;25.30;99.90
7163;DHT22;3623;47.098;15.446;2023-07-02T09:44:26;25.70;99.90
7163;DHT22;3623;47.098;15.446;2023-07-02T09:47:00;26.00;99.90
7163;DHT22;3623;47.098;15.446;2023-07-02T09:49:32;26.10;99.90
7163;DHT22;3623;47.098;15.446;2023-07-02T09:52:01;26.00;99.90
7163;DHT22;3623;47.098;15.446;2023-07-02T09:54:29;26.00;99.90
7163;DHT22;3623;47.098;15.446;2023-07-02T09:56:56;26.10;99.90
7163;DHT22;3623;47.098;15.446;2023-07-02T09:59:23;26.00;99.90
7163;DHT22;3623;47.098;15.446;2023-07-02T10:01:51;26.00;99.90
7163;DHT22;3623;47.098;15.446;2023-07-02T10:04:19;25.80;99.90
7163;DHT22;3623;47.098;15.446;2023-07-02T10:06:47;26.00;99.90
7163;DHT22;3623;47.098;15.446;2023-07-02T10:09:17;26.20;99.90
7163;DHT22;3623;47.098;15.446;2023-07-02T10:11:45;26.30;99.90
7163;DHT22;3623;47.098;15.446;2023-07-02T10:14:12;26.10;99.90
7163;DHT22;3623;47.098;15.446;2023-07-02T10:16:50;25.70;99.90
7163;DHT22;3623;47.098;15.446;2023-07-02T10:19:17;25.60;99.90
7163;DHT22;3623;47.098;15.446;2023-07-02T10:21:44;25.30;99.90
7163;DHT22;3623;47.098;15.446;2023-07-02T10:24:13;25.20;99.90
7163;DHT22;3623;47.098;15.446;2023-07-02T10:26:54;25.30;99.90
7163;DHT22;3623;47.098;15.446;2023-07-02T10:29:22;25.30;99.90
7163;DHT22;3623;47.098;15.446;2023-07-02T10:31:50;25.40;99.90
7163;DHT22;3623;47.098;15.446;2023-07-02T10:34:31;26.20;99.90
7163;DHT22;3623;47.098;15.446;2023-07-02T10:37:00;26.40;99.90
7163;DHT22;3623;47.098;15.446;2023-07-02T10:39:28;26.80;99.90
7163;DHT22;3623;47.098;15.446;2023-07-02T10:42:08;26.80;99.90
7163;DHT22;3623;47.098;15.446;2023-07-02T10:44:49;26.70;99.90
7163;DHT22;3623;47.098;15.446;2023-07-02T10:47:16;26.50;99.90
7163;DHT22;3623;47.098;15.446;2023-07-02T10:49:43;26.30;99.90
7163;DHT22;3623;47.098;15.446;2023-07-02T10:52:11;26.40;99.90
7163;DHT22;3623;47.098;15.446;2023-07-02T10:54:39;26.60;99.90
7163;DHT22;3623;47.098;15.446;2023-07-02T10:57:09;27.00;99.90
7163;DHT22;3623;47.098;15.446;2023-07-02T10:59:37;26.70;99.90
7163;DHT22;3623;47.098;15.446;2023-07-02T11:02:05;27.10;99.90
7163;DHT22;3623;47.098;15.446;2023-07-02T11:04:33;28.20;99.90
7163;DHT22;3623;47.098;15.446;2023-07-02T11:07:00;29.70;99.90
7163;DHT22;3623;47.098;15.446;2023-07-02T11:09:28;31.00;99.90
7163;DHT22;3623;47.098;15.446;2023-07-02T11:11:56;32.30;99.90
7163;DHT22;3623;47.098;15.446;2023-07-02T11:14:29;33.40;99.90
7163;DHT22;3623;47.098;15.446;2023-07-02T11:16:57;34.10;99.90
7163;DHT22;3623;47.098;15.446;2023-07-02T11:19:24;34.00;99.90
7163;DHT22;3623;47.098;15.446;2023-07-02T11:21:52;33.80;99.90
7163;DHT22;3623;47.098;15.446;2023-07-02T11:24:27;34.70;99.90
7163;DHT22;3623;47.098;15.446;2023-07-02T11:26:55;34.70;99.90
7163;DHT22;3623;47.098;15.446;2023-07-02T11:29:23;34.50;99.90
7163;DHT22;3623;47.098;15.446;2023-07-02T11:31:51;34.70;99.90
7163;DHT22;3623;47.098;15.446;2023-07-02T11:34:20;34.30;99.90
7163;DHT22;3623;47.098;15.446;2023-07-02T11:36:47;33.50;99.90
7163;DHT22;3623;47.098;15.446;2023-07-02T11:39:15;32.40;99.90
7163;DHT22;3623;47.098;15.446;2023-07-02T11:41:44;31.10;99.90
7163;DHT22;3623;47.098;15.446;2023-07-02T11:44:11;30.20;99.90
7163;DHT22;3623;47.098;15.446;2023-07-02T11:46:38;29.40;99.90
7163;DHT22;3623;47.098;15.446;2023-07-02T11:49:07;29.10;99.90
7163;DHT22;3623;47.098;15.446;2023-07-02T11:51:35;27.80;99.90
7163;DHT22;3623;47.098;15.446;2023-07-02T11:54:02;27.40;99.90
7163;DHT22;3623;47.098;15.446;2023-07-02T11:56:30;27.00;99.90
7163;DHT22;3623;47.098;15.446;2023-07-02T11:58:57;27.00;99.90
7163;DHT22;3623;47.098;15.446;2023-07-02T12:01:24;26.90;99.90
7163;DHT22;3623;47.098;15.446;2023-07-02T12:03:51;27.00;99.90
7163;DHT22;3623;47.098;15.446;2023-07-02T12:06:20;27.10;99.90
7163;DHT22;3623;47.098;15.446;2023-07-02T12:08:47;26.90;99.90
7163;DHT22;3623;47.098;15.446;2023-07-02T12:11:14;26.80;99.90
7163;DHT22;3623;47.098;15.446;2023-07-02T12:13:42;26.70;99.90
7163;DHT22;3623;47.098;15.446;2023-07-02T12:16:09;26.50;99.90
7163;DHT22;3623;47.098;15.446;2023-07-02T12:18:36;26.10;99.90
7163;DHT22;3623;47.098;15.446;2023-07-02T12:21:03;26.00;99.90
7163;DHT22;3623;47.098;15.446;2023-07-02T12:23:32;26.20;99.90
7163;DHT22;3623;47.098;15.446;2023-07-02T12:25:59;25.60;99.90
7163;DHT22;3623;47.098;15.446;2023-07-02T12:28:26;25.40;99.90
7163;DHT22;3623;47.098;15.446;2023-07-02T12:30:53;25.10;99.90
7163;DHT22;3623;47.098;15.446;2023-07-02T12:33:20;25.40;99.90
7163;DHT22;3623;47.098;15.446;2023-07-02T12:35:48;25.20;99.90
7163;DHT22;3623;47.098;15.446;2023-07-02T12:38:15;25.10;99.90
7163;DHT22;3623;47.098;15.446;2023-07-02T12:40:43;24.80;99.90
7163;DHT22;3623;47.098;15.446;2023-07-02T12:43:10;24.60;99.90
7163;DHT22;3623;47.098;15.446;2023-07-02T12:45:37;24.40;99.90
7163;DHT22;3623;47.098;15.446;2023-07-02T12:48:05;24.20;99.90
7163;DHT22;3623;47.098;15.446;2023-07-02T12:50:32;24.00;99.90
7163;DHT22;3623;47.098;15.446;2023-07-02T12:52:59;24.00;99.90
7163;DHT22;3623;47.098;15.446;2023-07-02T12:55:26;23.60;99.90
7163;DHT22;3623;47.098;15.446;2023-07-02T12:57:55;23.60;99.90
7163;DHT22;3623;47.098;15.446;2023-07-02T13:00:22;23.90;99.90
7163;DHT22;3623;47.098;15.446;2023-07-02T13:02:49;23.80;99.90
7163;DHT22;3623;47.098;15.446;2023-07-02T13:05:16;23.60;99.90
7163;DHT22;3623;47.098;15.446;2023-07-02T13:07:43;23.60;99.90
7163;DHT22;3623;47.098;15.446;2023-07-02T13:10:10;23.80;99.90
7163;DHT22;3623;47.098;15.446;2023-07-02T13:12:37;24.00;99.90
7163;DHT22;3623;47.098;15.446;2023-07-02T13:15:07;24.20;99.90
7163;DHT22;3623;47.098;15.446;2023-07-02T13:17:34;25.90;99.90
7163;DHT22;3623;47.098;15.446;2023-07-02T13:20:01;28.00;99.90
7163;DHT22;3623;47.098;15.446;2023-07-02T13:22:28;29.60;99.90
7163;DHT22;3623;47.098;15.446;2023-07-02T13:24:56;31.40;99.90
7163;DHT22;3623;47.098;15.446;2023-07-02T13:27:23;32.40;99.90
7163;DHT22;3623;47.098;15.446;2023-07-02T13:29:50;31.10;99.90
7163;DHT22;3623;47.098;15.446;2023-07-02T13:32:18;31.90;99.90
7163;DHT22;3623;47.098;15.446;2023-07-02T13:34:45;32.30;99.90
7163;DHT22;3623;47.098;15.446;2023-07-02T13:37:12;32.00;99.90
7163;DHT22;3623;47.098;15.446;2023-07-02T13:39:43;32.20;99.90
7163;DHT22;3623;47.098;15.446;2023-07-02T13:42:10;32.40;99.90
7163;DHT22;3623;47.098;15.446;2023-07-02T13:44:37;32.20;99.90
7163;DHT22;3623;47.098;15.446;2023-07-02T13:47:05;31.40;99.90
7163;DHT22;3623;47.098;15.446;2023-07-02T13:49:34;30.50;99.90
7163;DHT22;3623;47.098;15.446;2023-07-02T13:52:01;29.40;99.90
7163;DHT22;3623;47.098;15.446;2023-07-02T13:54:28;28.60;99.90
7163;DHT22;3623;47.098;15.446;2023-07-02T13:56:56;28.20;99.90
7163;DHT22;3623;47.098;15.446;2023-07-02T13:59:24;28.10;99.90
7163;DHT22;3623;47.098;15.446;2023-07-02T14:01:52;27.90;99.90
7163;DHT22;3623;47.098;15.446;2023-07-02T14:04:19;27.60;99.90
7163;DHT22;3623;47.098;15.446;2023-07-02T14:06:46;27.50;99.90
7163;DHT22;3623;47.098;15.446;2023-07-02T14:09:14;27.10;99.90
7163;DHT22;3623;47.098;15.446;2023-07-02T14:11:43;27.20;99.90
7163;DHT22;3623;47.098;15.446;2023-07-02T14:14:10;27.20;99.90
7163;DHT22;3623;47.098;15.446;2023-07-02T14:16:38;27.30;99.90
7163;DHT22;3623;47.098;15.446;2023-07-02T14:19:06;27.30;99.90
7163;DHT22;3623;47.098;15.446;2023-07-02T14:21:33;26.80;99.90
7163;DHT22;3623;47.098;15.446;2023-07-02T14:24:00;26.70;99.90
7163;DHT22;3623;47.098;15.446;2023-07-02T14:26:27;26.70;99.90
7163;DHT22;3623;47.098;15.446;2023-07-02T14:28:55;26.80;99.90
7163;DHT22;3623;47.098;15.446;2023-07-02T14:31:24;26.80;99.90
7163;DHT22;3623;47.098;15.446;2023-07-02T14:33:52;26.70;99.90
7163;DHT22;3623;47.098;15.446;2023-07-02T14:36:19;26.00;99.90
7163;DHT22;3623;47.098;15.446;2023-07-02T14:38:46;26.10;99.90
7163;DHT22;3623;47.098;15.446;2023-07-02T14:41:13;26.20;99.90
7163;DHT22;3623;47.098;15.446;2023-07-02T14:43:40;26.40;99.90
7163;DHT22;3623;47.098;15.446;2023-07-02T14:46:08;26.20;99.90
7163;DHT22;3623;47.098;15.446;2023-07-02T14:48:35;26.30;99.90
7163;DHT22;3623;47.098;15.446;2023-07-02T14:51:03;26.20;99.90
7163;DHT22;3623;47.098;15.446;2023-07-02T14:53:31;26.20;99.90
7163;DHT22;3623;47.098;15.446;2023-07-02T14:56:01;26.00;99.90
7163;DHT22;3623;47.098;15.446;2023-07-02T14:58:29;26.10;99.90
7163;DHT22;3623;47.098;15.446;2023-07-02T15:00:57;26.10;99.90
7163;DHT22;3623;47.098;15.446;2023-07-02T15:03:26;26.10;99.90
7163;DHT22;3623;47.098;15.446;2023-07-02T15:06:09;26.10;99.90
7163;DHT22;3623;47.098;15.446;2023-07-02T15:08:36;26.10;99.90
7163;DHT22;3623;47.098;15.446;2023-07-02T15:11:04;26.10;99.90
7163;DHT22;3623;47.098;15.446;2023-07-02T15:13:31;26.10;99.90
7163;DHT22;3623;47.098;15.446;2023-07-02T15:15:58;26.10;99.90
7163;DHT22;3623;47.098;15.446;2023-07-02T15:18:26;26.40;99.90
7163;DHT22;3623;47.098;15.446;2023-07-02T15:20:54;26.00;99.90
7163;DHT22;3623;47.098;15.446;2023-07-02T15:23:24;26.20;99.90
7163;DHT22;3623;47.098;15.446;2023-07-02T15:25:51;26.10;99.90
7163;DHT22;3623;47.098;15.446;2023-07-02T15:28:19;26.00;99.90
7163;DHT22;3623;47.098;15.446;2023-07-02T15:30:47;25.90;99.90
7163;DHT22;3623;47.098;15.446;2023-07-02T15:33:14;25.90;99.90
7163;DHT22;3623;47.098;15.446;2023-07-02T15:35:41;25.90;99.90
7163;DHT22;3623;47.098;15.446;2023-07-02T15:38:08;25.80;99.90
7163;DHT22;3623;47.098;15.446;2023-07-02T15:40:37;25.90;99.90
7163;DHT22;3623;47.098;15.446;2023-07-02T15:43:04;25.80;99.90
7163;DHT22;3623;47.098;15.446;2023-07-02T15:45:32;25.50;99.90
7163;DHT22;3623;47.098;15.446;2023-07-02T15:47:59;25.20;99.90
7163;DHT22;3623;47.098;15.446;2023-07-02T15:50:26;25.20;99.90